アルマトイ の空港の天気 - METARとTAF

アルマトイ国際空港 ( UAAA / ALA ) - カザフスタン アルマトイ
飛行場実況気象(Metar)
観測時間03/06 19:00 QYZT (03/06 14:00 UTC)
風向・風速南南西 2m/s
視程2100m
天気現象
全天の4割程度の雲 雲底高度 6100m
気温5℃
湿度65%
気圧1012hPa
METARUAAA 061400Z 21002MPS 2100 FU SCT200 05/M01 Q1012 R05R/CLRD65 TEMPO 1500 BR FU
過去の天気等 Google飛行場航空写真 Wunderground天気予報

過去48時間のMETAR

飛行場予報(TAF)
発表時間: 3/06 16:00 QYZT (3/06 11:00 UTC)
予報対象時間: 6日17時 QYZT ~ 7日17時 QYZT
風向・風速南南西 3m/s
視程3100m
天気現象もや 煙
全天の4割程度の雲 雲底高度 1520m
全天の8割程度の雲 雲底高度 3050m
6日17時 QYZT ~ 6日19時 QYZT に一時的に
視程6000m
天気現象運行に影響にある天気現象が終了
6日19時 QYZT ~ 7日7時 QYZT に一時的に
視程1400m
全天の4割程度の雲 雲底高度 340m
全天の8割程度の雲 雲底高度 610m
7日10時 QYZT から
風向・風速西 3m/s 瞬間風速 8m/s
視程10km以上
全天の8割程度の雲 雲底高度 1520m
全天の8割程度の雲 雲底高度 3050m
7日10時 QYZT ~ 7日17時 QYZT に一時的に
風向・風速北西 3m/s 瞬間風速 8m/s
全天の8割程度の積乱雲 雲底高度 610m
全天の8割程度の雲 雲底高度 3050m
TAF UAAA 061100Z 0612/0712 21003MPS 3100 BR FU SCT050 BKN100 TX11/0708Z TNM01/0701Z
TEMPO 0612/0614 6000 NSW
TEMPO 0614/0702 1400 SCT011 BKN020
FM070500 26003G08MPS 9999 BKN050 BKN100
TEMPO 0705/0712 32003G08MPS BKN020CB BKN100